KMNN/MNN METAR and TAF weather

Enter ICAO airport designator
Station Type Date Time Source
KMNN METAR 2021/03/08 15:53 UTC NOAA

KMNN 081553Z AUTO 20012KT 10SM CLR 08/M06 A3042 RMK AO2 SLP312 T00831061


Station Type Date Time Source
KMNN Decoded METAR 2021/03/08 15:53 UTC NOAA

MARION MUNICIPAL AIRPORT, OH, United States (KMNN) 40-37N 83-04W 301M
Mar 08, 2021 - 10:53 AM EST / 2021.03.08 1553 UTC
Wind: from the SSW (200 degrees) at 14 MPH (12 KT):0
Visibility: 10 mile(s):0
Sky conditions: clear
Temperature: 46.9 F (8.3 C)
Dew Point: 21.0 F (-6.1 C)
Relative Humidity: 35%
Pressure (altimeter): 30.42 in. Hg (1030 hPa)
ob: KMNN 081553Z AUTO 20012KT 10SM CLR 08/M06 A3042 RMK AO2 SLP312 T00831061
cycle: 16

Station Type Date Time Source
KMNN TAF UTC NOAA

Error!

Example: see airport list